sensor_id;sensor_type;location;lat;lon;timestamp;pressure;altitude;pressure_sealevel;temperature;humidity
44825;BME280;30542;47.928;2.138;2024-01-30T00:00:55;101614.13;;;20.27;49.07
44825;BME280;30542;47.928;2.138;2024-01-30T00:05:55;101611.69;;;20.25;48.87
44825;BME280;30542;47.928;2.138;2024-01-30T00:10:55;101604.84;;;20.18;48.85
44825;BME280;30542;47.928;2.138;2024-01-30T00:15:56;101607.06;;;20.21;48.94
44825;BME280;30542;47.928;2.138;2024-01-30T00:20:56;101607.50;;;20.18;48.96
44825;BME280;30542;47.928;2.138;2024-01-30T00:25:56;101611.44;;;20.15;48.92
44825;BME280;30542;47.928;2.138;2024-01-30T00:30:57;101609.03;;;20.14;48.85
44825;BME280;30542;47.928;2.138;2024-01-30T00:35:57;101609.25;;;20.12;48.75
44825;BME280;30542;47.928;2.138;2024-01-30T00:40:58;101603.09;;;20.11;48.78
44825;BME280;30542;47.928;2.138;2024-01-30T00:45:59;101605.44;;;20.08;48.88
44825;BME280;30542;47.928;2.138;2024-01-30T00:50:59;101610.19;;;20.06;49.12
44825;BME280;30542;47.928;2.138;2024-01-30T00:56:00;101610.63;;;20.03;49.11
44825;BME280;30542;47.928;2.138;2024-01-30T01:01:00;101605.78;;;20.00;49.09
44825;BME280;30542;47.928;2.138;2024-01-30T01:06:00;101617.75;;;19.97;48.92
44825;BME280;30542;47.928;2.138;2024-01-30T01:11:01;101608.78;;;19.92;49.22
44825;BME280;30542;47.928;2.138;2024-01-30T01:16:01;101603.66;;;19.90;49.18
44825;BME280;30542;47.928;2.138;2024-01-30T01:21:02;101603.53;;;19.85;49.19
44825;BME280;30542;47.928;2.138;2024-01-30T01:26:02;101612.38;;;19.85;49.03
44825;BME280;30542;47.928;2.138;2024-01-30T01:31:03;101610.75;;;19.84;48.85
44825;BME280;30542;47.928;2.138;2024-01-30T01:36:05;101613.66;;;19.83;48.88
44825;BME280;30542;47.928;2.138;2024-01-30T01:41:06;101629.72;;;19.83;49.06
44825;BME280;30542;47.928;2.138;2024-01-30T01:46:08;101623.75;;;19.81;48.71
44825;BME280;30542;47.928;2.138;2024-01-30T01:51:09;101621.91;;;19.81;48.87
44825;BME280;30542;47.928;2.138;2024-01-30T01:56:10;101628.31;;;19.80;48.78
44825;BME280;30542;47.928;2.138;2024-01-30T02:01:11;101629.34;;;19.79;48.72
44825;BME280;30542;47.928;2.138;2024-01-30T02:06:15;101619.13;;;19.76;48.79
44825;BME280;30542;47.928;2.138;2024-01-30T02:11:16;101632.25;;;19.78;48.66
44825;BME280;30542;47.928;2.138;2024-01-30T02:16:17;101624.47;;;19.76;48.66
44825;BME280;30542;47.928;2.138;2024-01-30T02:21:18;101620.97;;;19.76;48.49
44825;BME280;30542;47.928;2.138;2024-01-30T02:26:19;101613.84;;;19.70;48.70
44825;BME280;30542;47.928;2.138;2024-01-30T02:31:19;101608.06;;;19.73;48.48
44825;BME280;30542;47.928;2.138;2024-01-30T02:36:20;101606.44;;;19.72;48.50
44825;BME280;30542;47.928;2.138;2024-01-30T02:41:20;101609.13;;;19.72;48.41
44825;BME280;30542;47.928;2.138;2024-01-30T02:46:21;101612.97;;;19.76;48.46
44825;BME280;30542;47.928;2.138;2024-01-30T02:51:22;101610.84;;;19.78;48.34
44825;BME280;30542;47.928;2.138;2024-01-30T02:56:22;101616.56;;;19.81;48.12
44825;BME280;30542;47.928;2.138;2024-01-30T03:01:22;101606.91;;;19.80;48.21
44825;BME280;30542;47.928;2.138;2024-01-30T03:06:24;101614.34;;;19.90;48.22
44825;BME280;30542;47.928;2.138;2024-01-30T03:11:25;101610.53;;;19.98;47.87
44825;BME280;30542;47.928;2.138;2024-01-30T03:16:25;101607.28;;;20.07;47.94
44825;BME280;30542;47.928;2.138;2024-01-30T03:21:25;101605.28;;;20.15;47.58
44825;BME280;30542;47.928;2.138;2024-01-30T03:26:26;101611.94;;;20.24;47.42
44825;BME280;30542;47.928;2.138;2024-01-30T03:31:26;101614.47;;;20.30;47.42
44825;BME280;30542;47.928;2.138;2024-01-30T03:36:27;101601.19;;;20.35;47.21
44825;BME280;30542;47.928;2.138;2024-01-30T03:41:27;101612.84;;;20.41;47.03
44825;BME280;30542;47.928;2.138;2024-01-30T03:46:28;101612.94;;;20.46;46.98
44825;BME280;30542;47.928;2.138;2024-01-30T03:51:28;101621.13;;;20.51;46.93
44825;BME280;30542;47.928;2.138;2024-01-30T03:56:29;101618.53;;;20.56;46.83
44825;BME280;30542;47.928;2.138;2024-01-30T04:01:29;101625.53;;;20.57;46.77
44825;BME280;30542;47.928;2.138;2024-01-30T04:06:29;101625.84;;;20.61;46.67
44825;BME280;30542;47.928;2.138;2024-01-30T04:11:30;101627.84;;;20.66;46.48
44825;BME280;30542;47.928;2.138;2024-01-30T04:16:30;101626.53;;;20.68;46.45
44825;BME280;30542;47.928;2.138;2024-01-30T04:21:30;101628.75;;;20.71;46.38
44825;BME280;30542;47.928;2.138;2024-01-30T04:26:31;101635.50;;;20.74;46.40
44825;BME280;30542;47.928;2.138;2024-01-30T04:31:32;101636.88;;;20.76;46.24
44825;BME280;30542;47.928;2.138;2024-01-30T04:36:32;101638.28;;;20.79;46.22
44825;BME280;30542;47.928;2.138;2024-01-30T04:41:32;101635.16;;;20.82;46.27
44825;BME280;30542;47.928;2.138;2024-01-30T04:46:34;101638.38;;;20.84;46.21
44825;BME280;30542;47.928;2.138;2024-01-30T04:51:34;101639.78;;;20.87;46.09
44825;BME280;30542;47.928;2.138;2024-01-30T04:56:35;101643.63;;;20.91;46.09
44825;BME280;30542;47.928;2.138;2024-01-30T05:01:37;101650.59;;;20.92;45.97
44825;BME280;30542;47.928;2.138;2024-01-30T05:06:37;101648.72;;;20.92;45.85
44825;BME280;30542;47.928;2.138;2024-01-30T05:11:38;101653.03;;;20.93;46.01
44825;BME280;30542;47.928;2.138;2024-01-30T05:16:39;101654.44;;;20.96;45.96
44825;BME280;30542;47.928;2.138;2024-01-30T05:21:41;101658.72;;;20.97;46.18
44825;BME280;30542;47.928;2.138;2024-01-30T05:26:41;101654.78;;;20.99;46.59
44825;BME280;30542;47.928;2.138;2024-01-30T05:31:42;101658.00;;;21.01;46.91
44825;BME280;30542;47.928;2.138;2024-01-30T05:36:42;101658.25;;;21.00;46.78
44825;BME280;30542;47.928;2.138;2024-01-30T05:41:43;101671.75;;;21.05;47.53
44825;BME280;30542;47.928;2.138;2024-01-30T05:46:43;101673.72;;;21.09;48.42
44825;BME280;30542;47.928;2.138;2024-01-30T05:51:43;101678.00;;;21.10;48.77
44825;BME280;30542;47.928;2.138;2024-01-30T05:56:44;101668.34;;;21.09;48.73
44825;BME280;30542;47.928;2.138;2024-01-30T06:01:48;101673.50;;;21.11;48.36
44825;BME280;30542;47.928;2.138;2024-01-30T06:06:48;101679.66;;;21.12;48.26
44825;BME280;30542;47.928;2.138;2024-01-30T06:11:49;101685.81;;;21.12;48.07
44825;BME280;30542;47.928;2.138;2024-01-30T06:16:49;101690.94;;;21.14;48.17
44825;BME280;30542;47.928;2.138;2024-01-30T06:21:50;101689.88;;;21.15;48.19
44825;BME280;30542;47.928;2.138;2024-01-30T06:26:50;101692.56;;;21.15;48.06
44825;BME280;30542;47.928;2.138;2024-01-30T06:31:50;101689.66;;;21.16;48.16
44825;BME280;30542;47.928;2.138;2024-01-30T06:36:51;101695.56;;;21.18;47.89
44825;BME280;30542;47.928;2.138;2024-01-30T06:41:51;101703.63;;;21.18;47.53
44825;BME280;30542;47.928;2.138;2024-01-30T06:46:51;101714.94;;;21.20;47.29
44825;BME280;30542;47.928;2.138;2024-01-30T06:51:52;101703.28;;;21.15;47.39
44825;BME280;30542;47.928;2.138;2024-01-30T06:56:52;101714.69;;;21.22;47.11
44825;BME280;30542;47.928;2.138;2024-01-30T07:01:53;101723.53;;;21.22;47.10
44825;BME280;30542;47.928;2.138;2024-01-30T07:06:53;101726.47;;;21.21;47.11
44825;BME280;30542;47.928;2.138;2024-01-30T07:11:53;101731.00;;;21.20;47.16
44825;BME280;30542;47.928;2.138;2024-01-30T07:16:55;101734.75;;;21.19;47.12
44825;BME280;30542;47.928;2.138;2024-01-30T07:21:56;101744.06;;;21.17;47.26
44825;BME280;30542;47.928;2.138;2024-01-30T07:26:56;101745.13;;;21.16;47.57
44825;BME280;30542;47.928;2.138;2024-01-30T07:31:57;101743.25;;;21.16;47.80
44825;BME280;30542;47.928;2.138;2024-01-30T07:36:57;101756.19;;;21.19;47.94
44825;BME280;30542;47.928;2.138;2024-01-30T07:41:58;101766.41;;;21.22;48.13
44825;BME280;30542;47.928;2.138;2024-01-30T07:46:58;101765.34;;;21.23;47.92
44825;BME280;30542;47.928;2.138;2024-01-30T07:51:59;101768.63;;;21.25;47.64
44825;BME280;30542;47.928;2.138;2024-01-30T07:57:00;101778.28;;;21.26;47.82
44825;BME280;30542;47.928;2.138;2024-01-30T08:02:01;101786.09;;;21.28;47.84
44825;BME280;30542;47.928;2.138;2024-01-30T08:07:01;101786.91;;;21.28;47.79
44825;BME280;30542;47.928;2.138;2024-01-30T08:12:02;101778.63;;;21.30;47.73
44825;BME280;30542;47.928;2.138;2024-01-30T08:17:02;101782.91;;;21.31;47.65
44825;BME280;30542;47.928;2.138;2024-01-30T08:22:03;101792.66;;;21.32;47.81
44825;BME280;30542;47.928;2.138;2024-01-30T08:27:03;101787.28;;;21.32;47.63
44825;BME280;30542;47.928;2.138;2024-01-30T08:32:06;101787.59;;;21.35;47.61
44825;BME280;30542;47.928;2.138;2024-01-30T08:37:06;101804.75;;;21.34;47.54
44825;BME280;30542;47.928;2.138;2024-01-30T08:42:07;101799.97;;;21.37;47.62
44825;BME280;30542;47.928;2.138;2024-01-30T08:47:08;101803.47;;;21.37;47.54
44825;BME280;30542;47.928;2.138;2024-01-30T08:52:08;101807.75;;;21.38;47.85
44825;BME280;30542;47.928;2.138;2024-01-30T08:57:08;101803.47;;;21.37;47.91
44825;BME280;30542;47.928;2.138;2024-01-30T09:02:09;101820.91;;;21.40;47.68
44825;BME280;30542;47.928;2.138;2024-01-30T09:07:10;101814.75;;;21.39;47.77
44825;BME280;30542;47.928;2.138;2024-01-30T09:12:10;101825.25;;;21.41;47.79
44825;BME280;30542;47.928;2.138;2024-01-30T09:17:11;101824.19;;;21.42;47.72
44825;BME280;30542;47.928;2.138;2024-01-30T09:22:12;101835.72;;;21.42;47.91
44825;BME280;30542;47.928;2.138;2024-01-30T09:27:12;101839.00;;;21.44;47.77
44825;BME280;30542;47.928;2.138;2024-01-30T09:32:13;101838.41;;;21.42;47.82
44825;BME280;30542;47.928;2.138;2024-01-30T09:37:13;101840.63;;;21.45;47.84
44825;BME280;30542;47.928;2.138;2024-01-30T09:47:26;101851.34;;;21.45;47.76
44825;BME280;30542;47.928;2.138;2024-01-30T09:52:26;101853.44;;;21.43;47.57
44825;BME280;30542;47.928;2.138;2024-01-30T09:57:27;101866.63;;;21.45;47.71
44825;BME280;30542;47.928;2.138;2024-01-30T10:02:27;101869.50;;;21.43;47.64
44825;BME280;30542;47.928;2.138;2024-01-30T10:07:28;101873.84;;;21.44;47.51
44825;BME280;30542;47.928;2.138;2024-01-30T10:12:29;101869.50;;;21.43;47.36
44825;BME280;30542;47.928;2.138;2024-01-30T10:17:29;101869.88;;;21.47;47.51
44825;BME280;30542;47.928;2.138;2024-01-30T10:22:30;101866.97;;;21.48;48.09
44825;BME280;30542;47.928;2.138;2024-01-30T10:27:30;101872.09;;;21.50;48.66
44825;BME280;30542;47.928;2.138;2024-01-30T10:32:31;101883.06;;;21.48;48.76
44825;BME280;30542;47.928;2.138;2024-01-30T10:37:31;101885.72;;;21.48;48.73
44825;BME280;30542;47.928;2.138;2024-01-30T10:42:36;101890.25;;;21.48;48.74
44825;BME280;30542;47.928;2.138;2024-01-30T10:47:36;101896.66;;;21.47;48.95
44825;BME280;30542;47.928;2.138;2024-01-30T10:52:37;101904.72;;;21.47;48.98
44825;BME280;30542;47.928;2.138;2024-01-30T10:57:38;101900.41;;;21.46;48.88
44825;BME280;30542;47.928;2.138;2024-01-30T11:02:43;101893.28;;;21.40;48.99
44825;BME280;30542;47.928;2.138;2024-01-30T11:07:44;101890.59;;;21.40;48.95
44825;BME280;30542;47.928;2.138;2024-01-30T11:12:46;101903.00;;;21.41;48.77
44825;BME280;30542;47.928;2.138;2024-01-30T11:22:51;101903.56;;;21.43;48.98
44825;BME280;30542;47.928;2.138;2024-01-30T11:27:54;101906.47;;;21.41;48.91
44825;BME280;30542;47.928;2.138;2024-01-30T11:33:11;101910.78;;;21.42;48.75
44825;BME280;30542;47.928;2.138;2024-01-30T11:38:14;101911.84;;;21.41;48.64
44825;BME280;30542;47.928;2.138;2024-01-30T11:43:15;101909.97;;;21.42;48.64
44825;BME280;30542;47.928;2.138;2024-01-30T11:48:16;101900.78;;;21.38;48.58
44825;BME280;30542;47.928;2.138;2024-01-30T11:53:17;101903.78;;;21.41;48.97
44825;BME280;30542;47.928;2.138;2024-01-30T11:58:17;101913.72;;;21.41;48.98
44825;BME280;30542;47.928;2.138;2024-01-30T12:03:18;101906.47;;;21.41;49.07
44825;BME280;30542;47.928;2.138;2024-01-30T12:08:18;101907.75;;;21.39;48.99
44825;BME280;30542;47.928;2.138;2024-01-30T12:13:19;101914.72;;;21.40;49.07
44825;BME280;30542;47.928;2.138;2024-01-30T12:18:19;101911.50;;;21.38;49.08
44825;BME280;30542;47.928;2.138;2024-01-30T12:23:20;101910.69;;;21.37;49.16
44825;BME280;30542;47.928;2.138;2024-01-30T12:28:25;101901.81;;;21.37;49.05
44825;BME280;30542;47.928;2.138;2024-01-30T12:33:29;101894.25;;;21.33;49.00
44825;BME280;30542;47.928;2.138;2024-01-30T12:38:30;101896.69;;;21.35;48.98
44825;BME280;30542;47.928;2.138;2024-01-30T12:43:31;101888.88;;;21.33;49.05
44825;BME280;30542;47.928;2.138;2024-01-30T12:48:31;101899.34;;;21.35;48.95
44825;BME280;30542;47.928;2.138;2024-01-30T12:53:31;101897.75;;;21.34;48.76
44825;BME280;30542;47.928;2.138;2024-01-30T12:58:32;101890.75;;;21.33;48.86
44825;BME280;30542;47.928;2.138;2024-01-30T13:03:33;101897.75;;;21.34;48.85
44825;BME280;30542;47.928;2.138;2024-01-30T13:08:33;101893.44;;;21.33;48.72
44825;BME280;30542;47.928;2.138;2024-01-30T13:13:34;101891.56;;;21.33;48.68
44825;BME280;30542;47.928;2.138;2024-01-30T13:18:35;101885.41;;;21.33;48.68
44825;BME280;30542;47.928;2.138;2024-01-30T13:23:36;101890.75;;;21.33;48.68
44825;BME280;30542;47.928;2.138;2024-01-30T13:28:36;101888.06;;;21.33;48.57
44825;BME280;30542;47.928;2.138;2024-01-30T13:33:36;101884.59;;;21.32;48.55
44825;BME280;30542;47.928;2.138;2024-01-30T13:38:37;101886.44;;;21.32;48.40
44825;BME280;30542;47.928;2.138;2024-01-30T13:43:39;101875.72;;;21.32;48.50
44825;BME280;30542;47.928;2.138;2024-01-30T13:48:39;101873.84;;;21.32;48.27
44825;BME280;30542;47.928;2.138;2024-01-30T13:53:40;101881.09;;;21.32;48.27
44825;BME280;30542;47.928;2.138;2024-01-30T13:58:40;101884.59;;;21.32;48.26
44825;BME280;30542;47.928;2.138;2024-01-30T14:03:40;101896.28;;;21.31;48.42
44825;BME280;30542;47.928;2.138;2024-01-30T14:08:41;101887.44;;;21.31;48.17
44825;BME280;30542;47.928;2.138;2024-01-30T14:13:41;101894.50;;;21.32;48.20
44825;BME280;30542;47.928;2.138;2024-01-30T14:18:42;101888.50;;;21.30;48.26
44825;BME280;30542;47.928;2.138;2024-01-30T14:23:42;101895.47;;;21.31;48.27
44825;BME280;30542;47.928;2.138;2024-01-30T14:28:42;101907.88;;;21.32;48.15
44825;BME280;30542;47.928;2.138;2024-01-30T14:33:44;101898.97;;;21.31;48.12
44825;BME280;30542;47.928;2.138;2024-01-30T14:38:44;101903.78;;;21.29;48.18
44825;BME280;30542;47.928;2.138;2024-01-30T14:43:45;101915.94;;;21.32;48.16
44825;BME280;30542;47.928;2.138;2024-01-30T14:48:45;101924.97;;;21.31;48.18
44825;BME280;30542;47.928;2.138;2024-01-30T14:53:45;101925.78;;;21.31;48.16
44825;BME280;30542;47.928;2.138;2024-01-30T14:58:46;101932.44;;;21.29;48.02
44825;BME280;30542;47.928;2.138;2024-01-30T15:03:46;101927.06;;;21.29;48.04
44825;BME280;30542;47.928;2.138;2024-01-30T15:08:47;101934.06;;;21.30;47.97
44825;BME280;30542;47.928;2.138;2024-01-30T15:13:47;101938.38;;;21.31;47.81
44825;BME280;30542;47.928;2.138;2024-01-30T15:18:48;101943.72;;;21.31;47.89
44825;BME280;30542;47.928;2.138;2024-01-30T15:23:48;101939.41;;;21.30;47.75
44825;BME280;30542;47.928;2.138;2024-01-30T15:28:48;101942.91;;;21.30;47.94
44825;BME280;30542;47.928;2.138;2024-01-30T15:33:49;101943.72;;;21.31;47.86
44825;BME280;30542;47.928;2.138;2024-01-30T15:38:49;101941.03;;;21.31;47.64
44825;BME280;30542;47.928;2.138;2024-01-30T15:43:49;101943.38;;;21.27;47.76
44825;BME280;30542;47.928;2.138;2024-01-30T15:48:51;101957.13;;;21.31;47.66
44825;BME280;30542;47.928;2.138;2024-01-30T15:53:51;101955.50;;;21.30;47.68
44825;BME280;30542;47.928;2.138;2024-01-30T15:58:52;101972.41;;;21.30;47.57
44825;BME280;30542;47.928;2.138;2024-01-30T16:03:52;101965.41;;;21.29;47.61
44825;BME280;30542;47.928;2.138;2024-01-30T16:08:52;101969.72;;;21.30;47.55
44825;BME280;30542;47.928;2.138;2024-01-30T16:13:53;101964.59;;;21.29;47.66
44825;BME280;30542;47.928;2.138;2024-01-30T16:18:53;101980.69;;;21.29;47.59
44825;BME280;30542;47.928;2.138;2024-01-30T16:23:54;101988.47;;;21.30;47.69
44825;BME280;30542;47.928;2.138;2024-01-30T16:28:54;101983.13;;;21.30;47.34
44825;BME280;30542;47.928;2.138;2024-01-30T16:33:54;101993.84;;;21.30;47.50
44825;BME280;30542;47.928;2.138;2024-01-30T16:38:57;101995.69;;;21.30;47.35
44825;BME280;30542;47.928;2.138;2024-01-30T16:43:58;102000.00;;;21.31;47.23
44825;BME280;30542;47.928;2.138;2024-01-30T16:48:59;102004.56;;;21.30;47.39
44825;BME280;30542;47.928;2.138;2024-01-30T16:53:59;102001.88;;;21.30;47.20
44825;BME280;30542;47.928;2.138;2024-01-30T16:59:00;102003.50;;;21.31;46.97
44825;BME280;30542;47.928;2.138;2024-01-30T17:04:01;101998.84;;;21.27;47.27
44825;BME280;30542;47.928;2.138;2024-01-30T17:09:01;102002.69;;;21.31;46.97
44825;BME280;30542;47.928;2.138;2024-01-30T17:14:02;102007.25;;;21.30;46.83
44825;BME280;30542;47.928;2.138;2024-01-30T17:19:03;102011.78;;;21.30;46.82
44825;BME280;30542;47.928;2.138;2024-01-30T17:24:03;102025.19;;;21.30;46.90
44825;BME280;30542;47.928;2.138;2024-01-30T17:29:04;102021.69;;;21.29;46.94
44825;BME280;30542;47.928;2.138;2024-01-30T17:34:05;102047.69;;;21.29;47.12
44825;BME280;30542;47.928;2.138;2024-01-30T17:39:05;102040.44;;;21.29;46.97
44825;BME280;30542;47.928;2.138;2024-01-30T17:44:07;102041.25;;;21.30;46.98
44825;BME280;30542;47.928;2.138;2024-01-30T17:49:07;102045.00;;;21.29;47.03
44825;BME280;30542;47.928;2.138;2024-01-30T17:54:08;102048.50;;;21.29;47.08
44825;BME280;30542;47.928;2.138;2024-01-30T17:59:09;102054.66;;;21.30;46.97
44825;BME280;30542;47.928;2.138;2024-01-30T18:04:09;102060.03;;;21.30;47.11
44825;BME280;30542;47.928;2.138;2024-01-30T18:09:09;102054.66;;;21.30;46.99
44825;BME280;30542;47.928;2.138;2024-01-30T18:14:10;102060.97;;;21.24;47.01
44825;BME280;30542;47.928;2.138;2024-01-30T18:19:11;102072.38;;;21.31;47.07
44825;BME280;30542;47.928;2.138;2024-01-30T18:24:11;102075.28;;;21.29;47.05
44825;BME280;30542;47.928;2.138;2024-01-30T18:29:11;102078.22;;;21.28;47.03
44825;BME280;30542;47.928;2.138;2024-01-30T18:34:12;102087.28;;;21.27;47.20
44825;BME280;30542;47.928;2.138;2024-01-30T18:39:14;102092.44;;;21.28;47.10
44825;BME280;30542;47.928;2.138;2024-01-30T18:44:14;102090.16;;;21.32;47.07
44825;BME280;30542;47.928;2.138;2024-01-30T18:49:15;102086.25;;;21.28;46.91
44825;BME280;30542;47.928;2.138;2024-01-30T18:54:15;102092.94;;;21.37;46.97
44825;BME280;30542;47.928;2.138;2024-01-30T18:59:16;102099.94;;;21.38;46.86
44825;BME280;30542;47.928;2.138;2024-01-30T19:04:20;102098.06;;;21.39;46.93
44825;BME280;30542;47.928;2.138;2024-01-30T19:09:20;102103.44;;;21.39;46.79
44825;BME280;30542;47.928;2.138;2024-01-30T19:14:22;102102.63;;;21.38;46.90
44825;BME280;30542;47.928;2.138;2024-01-30T19:19:23;102104.25;;;21.39;47.05
44825;BME280;30542;47.928;2.138;2024-01-30T19:24:23;102108.22;;;21.37;46.85
44825;BME280;30542;47.928;2.138;2024-01-30T19:29:24;102121.13;;;21.40;46.89
44825;BME280;30542;47.928;2.138;2024-01-30T19:34:24;102126.75;;;21.38;46.94
44825;BME280;30542;47.928;2.138;2024-01-30T19:39:24;102120.31;;;21.39;47.08
44825;BME280;30542;47.928;2.138;2024-01-30T19:44:27;102127.78;;;21.37;47.09
44825;BME280;30542;47.928;2.138;2024-01-30T19:49:27;102115.78;;;21.40;47.10
44825;BME280;30542;47.928;2.138;2024-01-30T19:54:31;102115.78;;;21.40;47.04
44825;BME280;30542;47.928;2.138;2024-01-30T19:59:33;102115.78;;;21.40;47.03
44825;BME280;30542;47.928;2.138;2024-01-30T20:04:36;102113.34;;;21.38;46.96
44825;BME280;30542;47.928;2.138;2024-01-30T20:09:36;102103.06;;;21.35;47.12
44825;BME280;30542;47.928;2.138;2024-01-30T20:14:37;102110.53;;;21.33;47.21
44825;BME280;30542;47.928;2.138;2024-01-30T20:19:37;102122.06;;;21.33;47.10
44825;BME280;30542;47.928;2.138;2024-01-30T20:24:38;102111.59;;;21.32;47.24
44825;BME280;30542;47.928;2.138;2024-01-30T20:29:38;102115.25;;;21.31;47.28
44825;BME280;30542;47.928;2.138;2024-01-30T20:34:40;102089.25;;;21.20;47.12
44825;BME280;30542;47.928;2.138;2024-01-30T20:39:40;102117.94;;;21.31;47.05
44825;BME280;30542;47.928;2.138;2024-01-30T20:44:41;102112.81;;;21.29;47.10
44825;BME280;30542;47.928;2.138;2024-01-30T20:49:41;102118.75;;;21.31;47.10
44825;BME280;30542;47.928;2.138;2024-01-30T20:54:41;102125.97;;;21.31;47.07
44825;BME280;30542;47.928;2.138;2024-01-30T20:59:42;102119.81;;;21.30;47.04
44825;BME280;30542;47.928;2.138;2024-01-30T21:04:42;102125.97;;;21.31;47.10
44825;BME280;30542;47.928;2.138;2024-01-30T21:09:43;102121.66;;;21.30;47.03
44825;BME280;30542;47.928;2.138;2024-01-30T21:14:43;102121.66;;;21.30;47.03
44825;BME280;30542;47.928;2.138;2024-01-30T21:19:44;102119.00;;;21.30;47.02
44825;BME280;30542;47.928;2.138;2024-01-30T21:24:44;102109.41;;;21.22;46.96
44825;BME280;30542;47.928;2.138;2024-01-30T21:29:44;102122.13;;;21.27;46.96
44825;BME280;30542;47.928;2.138;2024-01-30T21:34:45;102126.53;;;21.21;46.95
44825;BME280;30542;47.928;2.138;2024-01-30T21:39:45;102136.22;;;21.22;47.44
44825;BME280;30542;47.928;2.138;2024-01-30T21:44:46;102142.25;;;21.18;47.11
44825;BME280;30542;47.928;2.138;2024-01-30T21:49:48;102146.56;;;21.19;47.13
44825;BME280;30542;47.928;2.138;2024-01-30T21:54:50;102143.53;;;21.15;47.11
44825;BME280;30542;47.928;2.138;2024-01-30T21:59:50;102148.06;;;21.15;47.09
44825;BME280;30542;47.928;2.138;2024-01-30T22:04:51;102147.13;;;21.09;46.86
44825;BME280;30542;47.928;2.138;2024-01-30T22:09:51;102155.16;;;21.09;47.16
44825;BME280;30542;47.928;2.138;2024-01-30T22:14:51;102149.78;;;21.09;47.11
44825;BME280;30542;47.928;2.138;2024-01-30T22:19:52;102151.06;;;21.06;47.07
44825;BME280;30542;47.928;2.138;2024-01-30T22:24:53;102151.28;;;21.05;47.22
44825;BME280;30542;47.928;2.138;2024-01-30T22:29:53;102161.44;;;21.03;47.29
44825;BME280;30542;47.928;2.138;2024-01-30T22:34:53;102168.03;;;21.00;47.07
44825;BME280;30542;47.928;2.138;2024-01-30T22:39:54;102173.84;;;20.97;47.15
44825;BME280;30542;47.928;2.138;2024-01-30T22:44:54;102177.56;;;20.96;47.26
44825;BME280;30542;47.928;2.138;2024-01-30T22:49:54;102166.72;;;20.91;47.38
44825;BME280;30542;47.928;2.138;2024-01-30T22:54:55;102190.34;;;20.94;47.29
44825;BME280;30542;47.928;2.138;2024-01-30T22:59:58;102187.09;;;20.92;47.42
44825;BME280;30542;47.928;2.138;2024-01-30T23:04:58;102191.03;;;20.90;47.66
44825;BME280;30542;47.928;2.138;2024-01-30T23:09:59;102185.78;;;20.83;47.47
44825;BME280;30542;47.928;2.138;2024-01-30T23:14:59;102185.78;;;20.83;47.58
44825;BME280;30542;47.928;2.138;2024-01-30T23:20:01;102189.94;;;20.79;47.60
44825;BME280;30542;47.928;2.138;2024-01-30T23:25:03;102201.84;;;20.83;47.50
44825;BME280;30542;47.928;2.138;2024-01-30T23:30:04;102199.97;;;20.83;47.55
44825;BME280;30542;47.928;2.138;2024-01-30T23:35:05;102200.56;;;20.85;47.41
44825;BME280;30542;47.928;2.138;2024-01-30T23:40:12;102209.44;;;20.86;47.59
44825;BME280;30542;47.928;2.138;2024-01-30T23:45:12;102199.03;;;20.78;47.49
44825;BME280;30542;47.928;2.138;2024-01-30T23:50:13;102199.16;;;20.83;47.36
44825;BME280;30542;47.928;2.138;2024-01-30T23:55:13;102208.44;;;20.80;47.38
